Time;durP1;ratioP1;P1;durP2;ratioP2;P2;SDS_P1;SDS_P2;PMS_P1;PMS_P2;Temp;Humidity;BMP_temperature;BMP_pressure;BME280_temperature;BME280_humidity;BME280_pressure;Samples;Min_cycle;Max_cycle;Signal;HPM_P1;HPM_P2
2022/11/14 00:00:14;;;;;;;5.30;1.40;;;7.20;99.90;;;;;;6245236;23;19911;-83
2022/11/14 00:02:39;;;;;;;1.70;1.23;;;6.40;99.90;;;;;;6245443;23;20344;-83
2022/11/14 00:05:06;;;;;;;3.60;1.20;;;6.40;99.90;;;;;;6245177;23;20086;-83
2022/11/14 00:07:33;;;;;;;2.40;0.73;;;6.40;99.90;;;;;;6219435;23;20085;-83
2022/11/14 00:10:00;;;;;;;3.95;1.65;;;6.40;99.90;;;;;;6245960;23;20035;-83
2022/11/14 00:12:26;;;;;;;2.08;0.90;;;6.40;99.90;;;;;;6245078;23;20023;-83
2022/11/14 00:14:52;;;;;;;3.13;1.38;;;6.50;99.90;;;;;;6246697;23;20047;-83
2022/11/14 00:17:17;;;;;;;2.67;1.10;;;6.50;99.90;;;;;;6245560;23;20020;-83
2022/11/14 00:19:43;;;;;;;1.43;1.27;;;6.50;99.90;;;;;;6246189;23;20232;-83
2022/11/14 00:22:09;;;;;;;2.67;1.53;;;6.90;99.90;;;;;;6220093;23;20318;-83
2022/11/14 00:24:35;;;;;;;0.67;0.67;;;7.00;99.90;;;;;;6220155;23;20023;-83
2022/11/14 00:27:00;;;;;;;2.03;1.53;;;7.70;99.90;;;;;;6244820;23;20492;-83
2022/11/14 00:29:26;;;;;;;2.03;1.33;;;6.50;99.90;;;;;;6219845;23;20012;-83
2022/11/14 00:31:51;;;;;;;5.90;1.97;;;7.60;99.90;;;;;;6244667;23;20091;-83
2022/11/14 00:34:17;;;;;;;1.10;1.00;;;6.60;99.90;;;;;;6246920;23;20012;-83
2022/11/14 00:36:43;;;;;;;2.10;1.30;;;6.50;99.90;;;;;;6246097;23;20008;-83
2022/11/14 00:39:13;;;;;;;2.60;0.80;;;6.50;99.90;;;;;;6244795;23;20020;-83
2022/11/14 00:41:40;;;;;;;1.33;1.05;;;7.40;99.90;;;;;;6194647;23;20027;-83
2022/11/14 00:44:06;;;;;;;;;;;6.50;99.90;;;;;;6246259;23;20008;-83
2022/11/14 00:46:33;;;;;;;2.33;1.13;;;7.70;99.90;;;;;;6245381;23;20220;-83
2022/11/14 00:48:58;;;;;;;1.92;1.02;;;6.50;99.90;;;;;;6245534;22;20376;-83
2022/11/14 00:51:24;;;;;;;1.30;1.13;;;6.50;99.90;;;;;;6220152;23;20012;-83
2022/11/14 00:53:49;;;;;;;2.77;1.50;;;6.50;99.90;;;;;;6244343;23;20023;-83
2022/11/14 00:56:15;;;;;;;2.37;1.67;;;7.50;99.90;;;;;;6246811;23;20098;-83
2022/11/14 00:58:41;;;;;;;3.93;1.20;;;6.50;99.90;;;;;;6244388;23;20321;-83
2022/11/14 01:01:06;;;;;;;4.40;1.77;;;6.60;99.90;;;;;;6244689;23;20012;-83
2022/11/14 01:03:32;;;;;;;2.97;2.27;;;6.60;99.90;;;;;;6195002;23;20105;-84
2022/11/14 01:06:04;;;;;;;1.77;1.10;;;7.90;99.90;;;;;;6245813;22;20023;-83
2022/11/14 01:08:29;;;;;;;4.03;1.98;;;6.60;99.90;;;;;;6246139;22;20463;-83
2022/11/14 01:10:55;;;;;;;4.20;2.00;;;7.10;99.90;;;;;;6244065;22;20019;-83
2022/11/14 01:13:23;;;;;;;1.47;1.17;;;6.90;99.90;;;;;;6244727;23;20012;-83
2022/11/14 01:15:49;;;;;;;2.90;1.13;;;6.70;99.90;;;;;;6245954;22;20083;-83
2022/11/14 01:18:19;;;;;;;1.98;0.90;;;7.20;99.90;;;;;;6245181;23;20016;-83
2022/11/14 01:20:47;;;;;;;2.30;1.65;;;7.70;99.90;;;;;;6244728;22;20027;-84
2022/11/14 01:23:14;;;;;;;7.63;2.45;;;6.50;99.90;;;;;;6244216;23;20012;-83
2022/11/14 01:25:41;;;;;;;6.03;2.25;;;6.50;99.90;;;;;;6245018;23;20107;-83
2022/11/14 01:28:09;;;;;;;4.78;1.60;;;6.50;99.90;;;;;;6244559;23;20302;-83
2022/11/14 01:30:35;;;;;;;1.65;1.08;;;6.50;99.90;;;;;;6244516;23;20417;-83
2022/11/14 01:33:01;;;;;;;2.47;1.85;;;6.40;99.90;;;;;;6219254;23;20020;-83
2022/11/14 01:35:27;;;;;;;4.80;1.97;;;6.40;99.90;;;;;;6245059;23;20008;-83
2022/11/14 01:37:53;;;;;;;1.97;1.03;;;6.80;99.90;;;;;;6245907;22;20015;-84
2022/11/14 01:40:19;;;;;;;1.23;1.17;;;7.00;99.90;;;;;;6246084;22;20016;-83
2022/11/14 01:43:15;;;;;;;2.97;1.60;;;6.60;99.90;;;;;;6246316;22;20012;-83
2022/11/14 01:45:52;;;;;;;1.42;1.25;;;6.30;99.90;;;;;;6244728;23;20016;-83
2022/11/14 01:48:31;;;;;;;5.32;1.90;;;6.30;99.90;;;;;;6243410;23;20012;-83
2022/11/14 01:51:02;;;;;;;2.97;1.35;;;6.30;99.90;;;;;;6244844;22;20020;-83
2022/11/14 01:53:29;;;;;;;4.45;2.05;;;6.50;99.90;;;;;;6246222;22;20070;-83
2022/11/14 01:55:59;;;;;;;2.35;1.75;;;6.30;99.90;;;;;;6219272;23;20016;-83
2022/11/14 01:58:27;;;;;;;1.67;1.27;;;7.50;99.90;;;;;;6244524;23;20012;-84
2022/11/14 02:00:54;;;;;;;1.77;1.00;;;6.30;99.90;;;;;;6245270;22;20016;-83
2022/11/14 02:03:20;;;;;;;3.42;1.60;;;6.20;99.90;;;;;;6244542;23;20016;-83
2022/11/14 02:05:47;;;;;;;4.00;2.53;;;6.50;99.90;;;;;;6244494;23;20016;-83
2022/11/14 02:08:15;;;;;;;3.38;1.08;;;6.80;99.90;;;;;;6218691;23;20020;-83
2022/11/14 02:10:41;;;;;;;4.82;2.05;;;6.20;99.90;;;;;;6246181;22;20082;-83
2022/11/14 02:13:07;;;;;;;2.20;1.13;;;6.20;99.90;;;;;;6243214;23;20012;-83
2022/11/14 02:15:33;;;;;;;2.13;1.73;;;6.10;99.90;;;;;;6243587;23;20019;-83
2022/11/14 02:18:00;;;;;;;3.35;1.17;;;6.10;99.90;;;;;;6245543;22;20239;-83
2022/11/14 02:20:31;;;;;;;5.35;1.92;;;7.50;99.90;;;;;;6244509;23;20019;-83
2022/11/14 02:22:57;;;;;;;2.38;0.90;;;7.30;99.90;;;;;;6243376;23;20332;-83
2022/11/14 02:25:23;;;;;;;4.40;2.33;;;6.20;99.90;;;;;;6245887;22;20047;-83
2022/11/14 02:27:49;;;;;;;6.33;2.07;;;6.20;99.90;;;;;;6243867;23;20103;-83
2022/11/14 02:30:19;;;;;;;5.18;1.75;;;6.20;99.90;;;;;;6245182;23;20231;-83
2022/11/14 02:32:44;;;;;;;2.03;1.25;;;6.20;99.90;;;;;;6243416;22;20091;-83
2022/11/14 02:35:10;;;;;;;6.93;2.03;;;6.20;99.90;;;;;;6243547;22;20051;-83
2022/11/14 02:37:37;;;;;;;8.00;2.10;;;6.60;99.90;;;;;;6245263;23;20449;-83
2022/11/14 02:40:03;;;;;;;4.07;1.83;;;6.60;99.90;;;;;;6244382;23;20008;-83
2022/11/14 02:42:28;;;;;;;2.97;1.33;;;6.20;99.90;;;;;;6243537;23;20102;-83
2022/11/14 02:44:54;;;;;;;2.23;1.83;;;6.20;99.90;;;;;;6244786;23;20556;-83
2022/11/14 02:47:20;;;;;;;1.93;1.80;;;6.20;99.90;;;;;;6243674;23;20437;-83
2022/11/14 02:49:46;;;;;;;4.83;2.10;;;7.00;99.90;;;;;;6243613;23;20020;-83
2022/11/14 02:52:12;;;;;;;6.73;2.20;;;6.60;99.90;;;;;;6244714;23;20013;-83
2022/11/14 02:54:37;;;;;;;2.47;1.70;;;6.50;99.90;;;;;;6245525;22;20479;-83
2022/11/14 02:57:03;;;;;;;2.63;2.00;;;7.20;99.90;;;;;;6242413;23;20099;-83
2022/11/14 02:59:29;;;;;;;3.30;2.03;;;6.20;99.90;;;;;;6243955;23;20640;-83
2022/11/14 03:01:54;;;;;;;5.37;1.53;;;6.20;99.90;;;;;;6244015;23;20012;-83
2022/11/14 03:04:20;;;;;;;3.50;2.00;;;6.10;99.90;;;;;;6245030;23;20027;-83
2022/11/14 03:06:45;;;;;;;2.67;1.73;;;6.40;99.90;;;;;;6243306;23;20012;-83
2022/11/14 03:09:11;;;;;;;2.20;1.27;;;6.20;99.90;;;;;;6242952;23;20024;-83
2022/11/14 03:11:38;;;;;;;1.60;1.37;;;6.50;99.90;;;;;;6245238;23;20020;-83
2022/11/14 03:14:03;;;;;;;3.72;2.03;;;6.70;99.90;;;;;;6244635;23;20016;-83
2022/11/14 03:16:29;;;;;;;5.03;2.37;;;6.20;99.90;;;;;;6244545;23;20031;-83
2022/11/14 03:18:55;;;;;;;5.13;2.33;;;6.20;99.90;;;;;;6243437;23;20030;-83
2022/11/14 03:21:22;;;;;;;4.60;3.10;;;6.10;99.90;;;;;;6243508;23;20016;-83
2022/11/14 03:23:48;;;;;;;2.45;1.58;;;6.10;99.90;;;;;;6243998;23;20020;-83
2022/11/14 03:26:14;;;;;;;9.07;1.90;;;6.30;99.90;;;;;;6242511;23;20017;-83
2022/11/14 03:28:40;;;;;;;3.60;1.65;;;6.20;99.90;;;;;;6243801;23;20020;-83
2022/11/14 03:31:09;;;;;;;1.17;1.07;;;6.10;99.90;;;;;;6244439;23;20008;-83
2022/11/14 03:33:35;;;;;;;2.60;1.83;;;6.60;99.90;;;;;;6243872;23;20243;-83
2022/11/14 03:36:02;;;;;;;5.68;3.72;;;6.40;99.90;;;;;;6218471;23;20452;-83
2022/11/14 03:38:28;;;;;;;4.00;1.98;;;6.10;99.90;;;;;;6244932;23;20466;-83
2022/11/14 03:40:53;;;;;;;4.37;3.03;;;6.10;99.90;;;;;;6247501;22;20056;-84
2022/11/14 03:43:20;;;;;;;5.70;2.53;;;6.10;99.90;;;;;;6195087;23;20247;-83
2022/11/14 03:45:47;;;;;;;2.00;1.42;;;6.10;99.90;;;;;;6219871;23;20095;-83
2022/11/14 03:48:13;;;;;;;8.63;3.33;;;6.10;99.90;;;;;;6246235;23;20020;-83
2022/11/14 03:50:40;;;;;;;3.05;1.63;;;7.00;99.90;;;;;;6220951;23;20020;-83
2022/11/14 03:53:06;;;;;;;2.90;1.17;;;6.30;99.90;;;;;;6195064;23;20042;-83
2022/11/14 03:55:32;;;;;;;2.55;1.50;;;6.10;99.90;;;;;;6245280;23;20012;-83
2022/11/14 03:57:58;;;;;;;5.63;2.20;;;6.70;99.90;;;;;;6247196;22;20012;-83
2022/11/14 04:00:24;;;;;;;5.63;1.73;;;6.50;99.90;;;;;;6246792;22;20997;-83
2022/11/14 04:02:49;;;;;;;2.93;1.70;;;6.10;99.90;;;;;;6246388;23;20020;-83
2022/11/14 04:05:15;;;;;;;3.10;1.17;;;6.40;99.90;;;;;;6244718;23;20449;-83
2022/11/14 04:07:41;;;;;;;2.37;1.70;;;6.10;99.90;;;;;;6244648;23;20016;-83
2022/11/14 04:10:07;;;;;;;4.43;2.47;;;6.50;99.90;;;;;;6245117;23;20016;-83
2022/11/14 04:12:32;;;;;;;4.97;2.25;;;6.10;99.90;;;;;;6245379;23;20020;-83
2022/11/14 04:14:58;;;;;;;2.30;1.57;;;7.10;99.90;;;;;;6245671;23;20099;-83
2022/11/14 04:17:24;;;;;;;5.67;1.90;;;6.00;99.90;;;;;;6246036;23;20019;-83
2022/11/14 04:19:49;;;;;;;6.33;2.17;;;7.00;99.90;;;;;;6245528;23;20107;-83
2022/11/14 04:22:15;;;;;;;2.07;1.30;;;6.10;99.90;;;;;;6246100;23;20056;-83
2022/11/14 04:24:41;;;;;;;3.43;1.63;;;6.10;99.90;;;;;;6247792;23;20027;-83
2022/11/14 04:27:07;;;;;;;2.43;1.37;;;6.00;99.90;;;;;;6246445;23;20012;-83
2022/11/14 04:29:32;;;;;;;4.57;1.27;;;6.50;99.90;;;;;;6244636;23;20428;-83
2022/11/14 04:31:58;;;;;;;1.20;0.87;;;6.00;99.90;;;;;;6246410;23;20404;-83
2022/11/14 04:34:24;;;;;;;3.87;2.10;;;6.00;99.90;;;;;;6194764;23;20016;-83
2022/11/14 04:36:52;;;;;;;3.67;2.33;;;6.00;99.90;;;;;;6246756;23;20333;-83
2022/11/14 04:39:17;;;;;;;3.53;1.55;;;6.10;99.90;;;;;;6244880;23;20108;-83
2022/11/14 04:41:43;;;;;;;2.67;1.67;;;6.00;99.90;;;;;;6245461;23;20414;-83
2022/11/14 04:44:09;;;;;;;4.57;2.77;;;6.90;99.90;;;;;;6247057;22;20024;-83
2022/11/14 04:46:34;;;;;;;4.40;2.60;;;6.00;99.90;;;;;;6218885;23;20016;-83
2022/11/14 04:49:00;;;;;;;3.50;1.50;;;6.50;99.90;;;;;;6246313;23;20016;-83
2022/11/14 04:51:26;;;;;;;5.50;2.40;;;6.00;99.90;;;;;;6246119;23;20031;-83
2022/11/14 04:53:52;;;;;;;7.37;2.03;;;6.10;99.90;;;;;;6195106;23;20137;-83
2022/11/14 04:56:17;;;;;;;1.53;1.00;;;6.00;99.90;;;;;;6244983;23;20052;-83
2022/11/14 04:58:43;;;;;;;3.03;2.40;;;6.00;99.90;;;;;;6246124;23;20020;-83
2022/11/14 05:01:10;;;;;;;2.00;0.90;;;6.00;99.90;;;;;;6219882;23;20016;-83
2022/11/14 05:03:36;;;;;;;5.35;2.20;;;7.10;99.90;;;;;;6245658;22;20020;-83
2022/11/14 05:06:02;;;;;;;7.30;3.17;;;6.00;99.90;;;;;;6244909;23;20050;-83
2022/11/14 05:08:28;;;;;;;2.65;1.13;;;6.00;99.90;;;;;;6244213;23;20008;-83
2022/11/14 05:10:54;;;;;;;2.53;1.20;;;6.90;99.90;;;;;;6246338;23;20479;-83
2022/11/14 05:13:19;;;;;;;2.63;1.07;;;6.10;99.90;;;;;;6245652;22;20048;-83
2022/11/14 05:15:45;;;;;;;4.87;1.17;;;6.00;99.90;;;;;;6246601;23;20437;-83
2022/11/14 05:18:11;;;;;;;3.33;1.83;;;6.10;99.90;;;;;;6245321;22;20353;-83
2022/11/14 05:20:37;;;;;;;6.00;3.00;;;6.00;99.90;;;;;;6245826;23;20059;-83
2022/11/14 05:23:02;;;;;;;4.27;2.50;;;7.00;99.90;;;;;;6244991;23;20441;-84
2022/11/14 05:25:28;;;;;;;5.10;2.57;;;5.90;99.90;;;;;;6219132;23;20075;-83
2022/11/14 05:27:54;;;;;;;2.33;2.03;;;7.00;99.90;;;;;;6218358;23;20027;-83
2022/11/14 05:30:20;;;;;;;4.50;1.90;;;5.90;99.90;;;;;;6245073;23;20019;-83
2022/11/14 05:32:45;;;;;;;2.80;1.63;;;6.10;99.90;;;;;;6246345;23;20024;-83
2022/11/14 05:35:11;;;;;;;4.57;2.17;;;5.90;99.90;;;;;;6245498;23;20063;-83
2022/11/14 05:37:37;;;;;;;4.33;2.87;;;5.80;99.90;;;;;;6244465;23;20450;-83
2022/11/14 05:40:07;;;;;;;7.32;2.85;;;6.70;99.90;;;;;;6244406;23;20349;-83
2022/11/14 05:42:33;;;;;;;1.75;1.65;;;5.80;99.90;;;;;;6219112;23;20449;-83
2022/11/14 05:44:58;;;;;;;4.37;2.20;;;5.80;99.90;;;;;;6244749;23;20027;-83
2022/11/14 05:47:24;;;;;;;2.83;1.73;;;5.80;99.90;;;;;;6245226;23;20095;-83
2022/11/14 05:49:50;;;;;;;2.17;1.87;;;6.00;99.90;;;;;;6219508;23;20047;-83
2022/11/14 05:52:15;;;;;;;1.77;0.93;;;6.90;99.90;;;;;;6246196;23;20333;-83
2022/11/14 05:54:41;;;;;;;3.83;1.60;;;6.30;99.90;;;;;;6245254;23;20461;-83
2022/11/14 05:57:07;;;;;;;3.47;2.00;;;5.80;99.90;;;;;;6243797;23;20024;-83
2022/11/14 05:59:32;;;;;;;3.17;1.33;;;7.20;99.90;;;;;;6242466;23;20020;-83
2022/11/14 06:01:58;;;;;;;5.80;2.33;;;5.80;99.90;;;;;;6243700;23;20024;-83
2022/11/14 06:04:24;;;;;;;3.03;1.77;;;5.80;99.90;;;;;;6193962;23;20425;-83
2022/11/14 06:06:49;;;;;;;4.37;2.33;;;5.80;99.90;;;;;;6244456;23;20020;-83
2022/11/14 06:09:15;;;;;;;3.13;2.10;;;5.80;99.90;;;;;;6219273;23;20020;-83
2022/11/14 06:11:40;;;;;;;3.03;1.97;;;5.80;99.90;;;;;;6218551;23;20059;-83
2022/11/14 06:14:06;;;;;;;4.57;1.87;;;6.80;99.90;;;;;;6246334;23;20455;-83
2022/11/14 06:16:32;;;;;;;3.43;1.40;;;7.00;99.90;;;;;;6243673;23;20498;-83
2022/11/14 06:18:57;;;;;;;5.00;2.23;;;5.90;99.90;;;;;;6246311;23;20380;-83
2022/11/14 06:21:26;;;;;;;2.40;1.90;;;5.70;99.90;;;;;;6219030;23;20103;-83
2022/11/14 06:23:52;;;;;;;7.13;1.73;;;5.70;99.90;;;;;;6219488;23;20054;-83
2022/11/14 06:26:31;;;;;;;3.37;2.13;;;5.70;99.90;;;;;;6245641;22;20016;-83
2022/11/14 06:28:58;;;;;;;2.72;1.38;;;5.60;99.90;;;;;;6244902;22;20016;-83
2022/11/14 06:31:24;;;;;;;2.58;2.05;;;5.50;99.90;;;;;;6244505;22;20061;-84
2022/11/14 06:33:50;;;;;;;3.15;1.73;;;6.00;99.90;;;;;;6243866;23;20024;-84
2022/11/14 06:36:19;;;;;;;7.90;1.97;;;5.50;99.90;;;;;;6243737;23;20070;-83
2022/11/14 06:38:45;;;;;;;5.82;1.95;;;5.50;99.90;;;;;;6245108;22;20016;-83
2022/11/14 06:41:16;;;;;;;3.83;1.83;;;6.60;99.90;;;;;;6243487;23;20113;-84
2022/11/14 06:43:46;;;;;;;4.70;1.83;;;6.50;99.90;;;;;;6243579;23;20066;-84
2022/11/14 06:46:14;;;;;;;7.97;2.00;;;5.60;99.90;;;;;;6244066;23;20016;-84
2022/11/14 06:48:40;;;;;;;8.98;2.90;;;5.30;99.90;;;;;;6243571;23;20103;-84
2022/11/14 06:51:07;;;;;;;4.32;1.50;;;5.40;99.90;;;;;;6243655;23;20471;-84
2022/11/14 06:53:34;;;;;;;4.13;2.35;;;5.90;99.90;;;;;;6243711;23;20016;-84
2022/11/14 06:56:09;;;;;;;3.92;1.55;;;5.80;99.90;;;;;;6218837;23;20019;-83
2022/11/14 06:58:40;;;;;;;3.55;1.23;;;5.40;99.90;;;;;;6244314;22;20062;-79
2022/11/14 07:01:21;;;;;;;2.72;1.45;;;5.40;99.90;;;;;;6243331;23;20447;-81
2022/11/14 07:03:47;;;;;;;4.35;1.95;;;5.40;99.90;;;;;;6243744;23;20023;-82
2022/11/14 07:06:16;;;;;;;4.37;1.33;;;5.40;99.90;;;;;;6242379;23;20016;-82
2022/11/14 07:08:42;;;;;;;2.38;1.30;;;5.40;99.90;;;;;;6244038;22;20239;-82
2022/11/14 07:11:10;;;;;;;2.90;2.50;;;5.40;99.90;;;;;;6245249;22;20456;-82
2022/11/14 07:13:37;;;;;;;4.30;1.70;;;5.50;99.90;;;;;;6242981;23;20437;-82
2022/11/14 07:16:03;;;;;;;;;;;5.80;99.90;;;;;;6247879;22;20033;-82
2022/11/14 07:18:30;;;;;;;4.47;1.73;;;5.30;99.90;;;;;;6243671;23;20240;-81
2022/11/14 07:20:57;;;;;;;4.47;1.55;;;5.40;99.90;;;;;;6242623;23;20039;-82
2022/11/14 07:23:23;;;;;;;5.30;2.25;;;6.20;99.90;;;;;;6243959;23;20339;-82
2022/11/14 07:25:49;;;;;;;2.47;1.03;;;5.30;99.90;;;;;;6244556;23;20232;-82
2022/11/14 07:28:14;;;;;;;3.50;1.03;;;6.60;99.90;;;;;;6221037;23;20380;-81
2022/11/14 07:30:40;;;;;;;2.73;1.57;;;5.30;99.90;;;;;;6242937;23;20067;-81
2022/11/14 07:33:06;;;;;;;1.83;1.43;;;5.40;99.90;;;;;;6242818;23;20012;-81
2022/11/14 07:35:32;;;;;;;2.07;1.30;;;5.30;99.90;;;;;;6242738;23;20243;-81
2022/11/14 07:38:02;;;;;;;4.47;1.80;;;5.30;99.90;;;;;;6244002;23;20097;-82
2022/11/14 07:40:28;;;;;;;3.58;1.35;;;5.30;99.90;;;;;;6243558;22;20020;-82
2022/11/14 07:42:59;;;;;;;3.97;2.03;;;5.30;99.90;;;;;;6217803;23;20035;-82
2022/11/14 07:45:26;;;;;;;1.60;1.38;;;5.30;99.90;;;;;;6242007;22;20410;-82
2022/11/14 07:47:56;;;;;;;3.47;1.83;;;6.30;99.90;;;;;;6243609;22;20009;-82
2022/11/14 07:50:26;;;;;;;8.85;2.78;;;6.10;99.90;;;;;;6243862;23;20012;-81
2022/11/14 07:52:54;;;;;;;6.63;2.33;;;5.60;99.90;;;;;;6243409;22;20066;-82
2022/11/14 07:55:20;;;;;;;4.45;2.28;;;5.30;99.90;;;;;;6242327;23;20087;-81
2022/11/14 07:57:46;;;;;;;2.15;1.98;;;5.40;99.90;;;;;;6242162;23;20013;-81
2022/11/14 08:00:13;;;;;;;3.85;2.00;;;5.40;99.90;;;;;;6217210;23;20449;-81
2022/11/14 08:02:39;;;;;;;4.93;1.50;;;5.40;99.90;;;;;;6242379;23;20337;-81
2022/11/14 08:05:05;;;;;;;2.60;0.97;;;5.40;99.90;;;;;;6240907;23;20016;-81
2022/11/14 08:07:31;;;;;;;4.97;2.70;;;5.50;99.90;;;;;;6241734;23;20020;-81
2022/11/14 08:09:57;;;;;;;5.23;2.30;;;5.50;99.90;;;;;;6243869;23;20017;-80
2022/11/14 08:12:22;;;;;;;4.83;1.13;;;5.90;99.90;;;;;;6242563;23;20027;-81
2022/11/14 08:14:48;;;;;;;4.37;1.73;;;5.50;99.90;;;;;;6242814;23;20016;-83
2022/11/14 08:17:14;;;;;;;4.37;1.63;;;6.50;99.90;;;;;;6240946;23;20023;-84
2022/11/14 08:19:39;;;;;;;2.17;1.07;;;5.60;99.90;;;;;;6244147;22;20028;-84
2022/11/14 08:22:08;;;;;;;5.43;2.13;;;5.60;99.90;;;;;;6218259;23;20047;-84
2022/11/14 08:24:34;;;;;;;3.47;1.83;;;5.60;99.90;;;;;;6244582;23;20476;-84
2022/11/14 08:26:59;;;;;;;6.30;2.20;;;5.60;99.90;;;;;;6244109;23;20020;-84
2022/11/14 08:29:25;;;;;;;1.50;1.40;;;6.90;99.90;;;;;;6219217;23;20023;-84
2022/11/14 08:31:51;;;;;;;5.80;2.67;;;5.60;99.90;;;;;;6245367;23;20065;-84
2022/11/14 08:34:16;;;;;;;4.40;1.77;;;6.50;99.90;;;;;;6241905;23;20023;-84
2022/11/14 08:36:42;;;;;;;3.30;1.47;;;5.60;99.90;;;;;;6243978;23;20444;-84
2022/11/14 08:39:08;;;;;;;1.37;1.23;;;6.30;99.90;;;;;;6245031;23;20016;-84
2022/11/14 08:41:33;;;;;;;5.53;2.43;;;6.00;99.90;;;;;;6246364;23;20018;-84
2022/11/14 08:43:59;;;;;;;3.47;1.93;;;5.70;99.90;;;;;;6244319;23;20453;-84
2022/11/14 08:46:25;;;;;;;3.00;1.80;;;5.70;99.90;;;;;;6219263;23;20046;-84
2022/11/14 08:48:50;;;;;;;6.77;2.43;;;5.80;99.90;;;;;;6243104;23;20020;-84
2022/11/14 08:51:16;;;;;;;7.87;2.33;;;5.80;99.90;;;;;;6219237;23;20095;-84
2022/11/14 08:53:41;;;;;;;4.70;2.17;;;5.90;99.90;;;;;;6219262;23;20016;-83
2022/11/14 08:56:09;;;;;;;4.70;1.17;;;6.50;99.90;;;;;;6243939;23;20059;-83
2022/11/14 08:58:35;;;;;;;4.00;1.85;;;6.80;99.90;;;;;;6244022;23;20020;-84
2022/11/14 09:01:02;;;;;;;3.60;1.70;;;6.30;99.90;;;;;;6218174;23;20018;-84
2022/11/14 09:03:28;;;;;;;3.95;1.92;;;6.00;99.90;;;;;;6194188;23;20023;-84
2022/11/14 09:05:54;;;;;;;1.63;1.50;;;6.20;99.90;;;;;;6194047;23;20016;-84
2022/11/14 09:08:21;;;;;;;5.33;1.60;;;6.10;99.90;;;;;;6245108;23;20020;-84
2022/11/14 09:10:47;;;;;;;;;;;6.20;99.90;;;;;;6244369;23;20031;-84
2022/11/14 09:13:13;;;;;;;4.43;1.45;;;6.90;99.90;;;;;;6245103;23;20320;-84
2022/11/14 09:15:39;;;;;;;3.63;1.88;;;7.60;99.90;;;;;;6245108;23;20016;-84
2022/11/14 09:18:05;;;;;;;2.23;1.43;;;6.70;99.90;;;;;;6244085;23;20026;-84
2022/11/14 09:20:30;;;;;;;6.65;2.08;;;6.50;99.90;;;;;;6219423;23;20024;-84
2022/11/14 09:23:00;;;;;;;5.53;1.27;;;6.60;99.90;;;;;;6244483;23;20074;-84
2022/11/14 09:25:28;;;;;;;3.50;2.38;;;6.70;99.90;;;;;;6245017;23;20103;-84
2022/11/14 09:27:54;;;;;;;6.88;2.67;;;6.70;99.90;;;;;;6244371;23;20012;-84
2022/11/14 09:30:23;;;;;;;3.85;2.05;;;6.70;99.90;;;;;;6219128;23;20028;-83
2022/11/14 09:32:51;;;;;;;4.78;1.63;;;6.90;99.90;;;;;;6221335;23;20020;-87
2022/11/14 09:35:17;;;;;;;8.93;3.08;;;6.80;99.90;;;;;;6218560;23;20448;-85
2022/11/14 09:37:43;;;;;;;3.33;1.80;;;7.50;99.90;;;;;;6218434;23;20020;-86
2022/11/14 09:40:12;;;;;;;4.03;1.70;;;6.80;99.90;;;;;;6218725;23;20170;-88
2022/11/14 09:43:09;;;;;;;2.53;1.35;;;6.80;99.90;;;;;;6194383;23;20012;-88
2022/11/14 09:45:41;;;;;;;3.93;1.47;;;6.80;99.90;;;;;;6223785;23;20046;-87
2022/11/14 09:48:13;;;;;;;2.45;1.52;;;6.70;99.90;;;;;;6218983;23;20016;-88
2022/11/14 09:50:47;;;;;;;6.88;2.08;;;6.70;99.90;;;;;;6219774;23;20020;-88
2022/11/14 09:53:23;;;;;;;3.40;1.75;;;6.70;99.90;;;;;;6244300;23;20476;-89
2022/11/14 09:55:48;;;;;;;3.58;2.72;;;6.80;99.90;;;;;;6218598;23;20400;-89
2022/11/14 09:58:20;;;;;;;5.73;2.43;;;7.50;99.90;;;;;;6243734;23;20020;-89
2022/11/14 10:01:12;;;;;;;3.35;0.80;;;7.10;99.90;;;;;;6244302;23;20012;-89
2022/11/14 10:03:41;;;;;;;3.45;2.13;;;7.40;99.90;;;;;;6245534;22;20027;-89
2022/11/14 10:06:26;;;;;;;4.68;1.90;;;7.70;99.90;;;;;;6217591;23;20020;-90
2022/11/14 10:09:29;;;;;;;3.25;1.80;;;8.00;99.90;;;;;;6219080;23;20022;-89
2022/11/14 10:12:14;;;;;;;5.80;2.13;;;8.10;99.90;;;;;;6219546;23;20049;-89
2022/11/14 10:14:39;;;;;;;2.78;1.48;;;8.00;99.90;;;;;;6244727;23;20095;-90
2022/11/14 10:17:38;;;;;;;2.30;1.47;;;7.90;99.90;;;;;;6218365;23;20091;-85
2022/11/14 10:20:15;;;;;;;7.05;2.85;;;7.70;99.90;;;;;;6244082;23;20020;-92
2022/11/14 10:22:53;;;;;;;3.30;1.67;;;7.60;99.90;;;;;;6243814;23;20444;-89
2022/11/14 10:25:41;;;;;;;3.05;1.85;;;7.60;99.90;;;;;;6241608;23;20506;-88
2022/11/14 10:28:47;;;;;;;2.38;1.58;;;7.60;99.90;;;;;;6216733;23;20445;-87
2022/11/14 10:31:17;;;;;;;4.38;2.53;;;7.80;99.90;;;;;;6218787;23;20449;-93
2022/11/14 10:34:03;;;;;;;4.10;2.00;;;7.90;99.90;;;;;;6218965;23;20066;-90
2022/11/14 10:36:46;;;;;;;6.63;2.05;;;9.00;99.90;;;;;;6243197;23;20019;-89
2022/11/14 10:39:41;;;;;;;1.35;1.02;;;8.00;99.90;;;;;;6243758;23;20016;-88
2022/11/14 10:42:23;;;;;;;2.72;1.90;;;8.10;99.90;;;;;;6218120;23;20027;-89
2022/11/14 10:45:10;;;;;;;3.90;1.80;;;7.90;99.90;;;;;;6244020;23;20449;-89
2022/11/14 10:47:42;;;;;;;2.30;1.83;;;7.80;99.90;;;;;;6244203;23;20023;-90
2022/11/14 10:50:36;;;;;;;6.43;2.25;;;7.80;99.90;;;;;;6218543;23;20389;-89
2022/11/14 10:53:17;;;;;;;2.95;1.70;;;7.80;99.90;;;;;;6243917;23;20512;-89
2022/11/14 10:55:48;;;;;;;5.28;1.48;;;8.00;99.90;;;;;;6244542;23;20020;-92
2022/11/14 10:58:14;;;;;;;6.03;1.95;;;8.30;99.90;;;;;;6243707;23;20020;-93
2022/11/14 11:00:40;;;;;;;3.60;1.90;;;8.50;99.90;;;;;;6194185;23;20016;-89
2022/11/14 11:03:06;;;;;;;3.00;1.73;;;8.40;99.90;;;;;;6218217;23;20016;-90
2022/11/14 11:05:53;;;;;;;5.40;2.30;;;8.50;99.90;;;;;;6218224;23;20044;-91
2022/11/14 11:11:30;;;;;;;3.67;1.48;;;8.50;99.90;;;;;;6243566;23;20372;-85
2022/11/14 11:13:59;;;;;;;3.78;1.92;;;8.40;99.90;;;;;;6243841;23;20008;-87
2022/11/14 11:16:26;;;;;;;5.40;2.33;;;8.90;99.90;;;;;;6243279;23;20024;-89
2022/11/14 11:19:13;;;;;;;1.42;1.20;;;9.00;99.90;;;;;;6218677;23;20091;-88
2022/11/14 11:21:49;;;;;;;1.42;1.00;;;9.00;99.90;;;;;;6218803;23;20070;-88
2022/11/14 11:24:33;;;;;;;4.68;2.42;;;9.40;99.90;;;;;;6243533;23;20020;-88
2022/11/14 11:27:21;;;;;;;3.58;1.83;;;9.50;99.90;;;;;;6244134;23;20333;-88
2022/11/14 11:30:08;;;;;;;3.42;1.10;;;9.80;99.90;;;;;;6244288;23;20012;-87
2022/11/14 11:32:34;;;;;;;4.63;1.35;;;9.90;99.90;;;;;;6244418;23;20388;-87
2022/11/14 11:35:08;;;;;;;3.10;2.03;;;10.00;99.90;;;;;;6193031;23;20024;-85
2022/11/14 11:37:45;;;;;;;2.72;2.08;;;10.30;99.90;;;;;;6244078;22;20020;-85
2022/11/14 11:40:16;;;;;;;5.57;2.00;;;10.50;99.90;;;;;;6242156;23;20067;-87
2022/11/14 11:42:55;;;;;;;3.90;1.55;;;10.80;99.90;;;;;;6217525;23;20059;-87
2022/11/14 11:45:24;;;;;;;5.28;2.47;;;10.90;99.90;;;;;;6216808;23;20083;-87
2022/11/14 11:48:12;;;;;;;1.92;1.65;;;10.90;99.90;;;;;;6217384;23;20062;-87
2022/11/14 11:50:39;;;;;;;4.38;2.28;;;10.90;99.90;;;;;;6242895;23;20016;-86
2022/11/14 11:53:36;;;;;;;;;;;10.90;99.90;;;;;;6243367;23;20052;-87
2022/11/14 11:56:19;;;;;;;4.72;2.10;;;11.00;99.90;;;;;;6200677;23;19955;-87
2022/11/14 11:58:52;;;;;;;2.08;1.50;;;11.10;99.90;;;;;;6244817;23;20016;-87
2022/11/14 12:01:18;;;;;;;1.65;1.30;;;11.20;99.90;;;;;;6218547;23;20012;-87
2022/11/14 12:03:50;;;;;;;3.85;2.85;;;11.20;99.90;;;;;;6220061;23;20381;-87
2022/11/14 12:06:26;;;;;;;2.95;1.70;;;11.20;99.90;;;;;;6219282;23;20034;-87
2022/11/14 12:09:05;;;;;;;2.75;1.80;;;11.10;99.90;;;;;;6246168;23;20023;-86
2022/11/14 12:11:36;;;;;;;2.08;1.70;;;10.40;99.90;;;;;;6219257;23;20027;-88
2022/11/14 12:14:26;;;;;;;4.60;2.05;;;11.00;99.90;;;;;;6244859;23;20070;-88
2022/11/14 12:17:19;;;;;;;2.55;1.98;;;11.00;99.90;;;;;;6219989;23;20022;-89
2022/11/14 12:19:54;;;;;;;2.92;2.28;;;11.00;99.90;;;;;;6245583;23;20020;-88
2022/11/14 12:22:48;;;;;;;2.25;1.30;;;11.00;99.90;;;;;;6219895;23;20405;-88
2022/11/14 12:25:25;;;;;;;3.47;2.00;;;11.10;99.90;;;;;;6245241;23;20100;-86
2022/11/14 12:28:19;;;;;;;3.17;1.67;;;11.10;99.90;;;;;;6247042;22;20433;-88
2022/11/14 12:30:52;;;;;;;4.75;2.00;;;11.20;99.90;;;;;;6244937;23;20059;-89
2022/11/14 12:33:24;;;;;;;1.92;1.52;;;12.00;99.90;;;;;;6216803;23;20020;-87
2022/11/14 12:35:57;;;;;;;2.40;1.80;;;11.40;99.90;;;;;;6217838;23;20111;-86
2022/11/14 12:38:25;;;;;;;2.90;2.08;;;11.50;99.90;;;;;;6243620;23;20035;-89
2022/11/14 12:40:54;;;;;;;3.65;1.75;;;11.50;99.90;;;;;;6245732;22;20016;-90
2022/11/14 12:43:44;;;;;;;3.55;2.10;;;11.60;99.90;;;;;;6243970;23;20012;-87
2022/11/14 12:46:11;;;;;;;4.32;1.80;;;11.80;99.90;;;;;;6244776;23;20550;-89
2022/11/14 12:48:42;;;;;;;2.97;1.50;;;11.90;99.90;;;;;;6218656;23;20763;-82
2022/11/14 12:51:23;;;;;;;2.08;1.10;;;12.00;99.90;;;;;;6246401;23;20024;-84
2022/11/14 12:53:49;;;;;;;1.85;1.42;;;12.10;99.90;;;;;;6219499;23;20060;-84
2022/11/14 12:56:20;;;;;;;2.88;1.23;;;12.00;99.90;;;;;;6219789;23;20318;-84
2022/11/14 12:59:18;;;;;;;2.30;1.77;;;12.10;99.90;;;;;;6220325;23;20027;-85
2022/11/14 13:01:50;;;;;;;2.65;1.80;;;12.30;99.90;;;;;;6245327;23;20090;-85
2022/11/14 13:04:46;;;;;;;2.55;1.80;;;12.30;99.90;;;;;;6218114;23;20035;-84
2022/11/14 13:07:27;;;;;;;2.33;1.35;;;12.30;99.90;;;;;;6244806;23;20070;-84
2022/11/14 13:10:34;;;;;;;3.50;2.08;;;12.50;99.90;;;;;;6247083;23;20372;-84
2022/11/14 13:22:22;;;;;;;3.00;1.50;;;12.70;99.90;;;;;;6193307;23;20441;-88